Terminal Aerodrome Forecast
Issued by NWS

Home | Current Version | Previous Version | Text Only | Print | Product List | Glossary On
Versions: 1 2 3 4 5 6 7 8 9 10 11 12 13 14 15 16 17 18 19 20
643
FTUS44 KSJT 240520
TAFJCT
TAF
KJCT 240520Z 2406/2506 16007KT P6SM OVC022
     FM240700 15008KT P6SM OVC014
     FM241800 18009KT P6SM SCT030 BKN040=

USA.gov is the U.S. government's official web portal to all federal, state and local government web resources and services.